sensor_id;sensor_type;location;lat;lon;timestamp;pressure;altitude;pressure_sealevel;temperature;humidity
55289;BME280;41154;45.394;5.734;2023-04-04T00:00:32;96924.75;;;4.71;100.00
55289;BME280;41154;45.394;5.734;2023-04-04T00:02:57;96922.38;;;4.56;100.00
55289;BME280;41154;45.394;5.734;2023-04-04T00:05:23;96919.72;;;4.56;100.00
55289;BME280;41154;45.394;5.734;2023-04-04T00:07:49;96924.28;;;4.49;100.00
55289;BME280;41154;45.394;5.734;2023-04-04T00:10:15;96933.31;;;4.41;100.00
55289;BME280;41154;45.394;5.734;2023-04-04T00:12:42;96938.41;;;4.43;100.00
55289;BME280;41154;45.394;5.734;2023-04-04T00:15:08;96926.50;;;4.52;100.00
55289;BME280;41154;45.394;5.734;2023-04-04T00:17:34;96925.28;;;4.48;100.00
55289;BME280;41154;45.394;5.734;2023-04-04T00:20:00;96918.97;;;4.42;100.00
55289;BME280;41154;45.394;5.734;2023-04-04T00:22:26;96918.31;;;4.54;100.00
55289;BME280;41154;45.394;5.734;2023-04-04T00:24:52;96917.75;;;4.45;100.00
55289;BME280;41154;45.394;5.734;2023-04-04T00:27:18;96931.06;;;4.38;100.00
55289;BME280;41154;45.394;5.734;2023-04-04T00:29:43;96919.25;;;4.34;100.00
55289;BME280;41154;45.394;5.734;2023-04-04T00:32:10;96916.78;;;4.32;100.00
55289;BME280;41154;45.394;5.734;2023-04-04T00:34:36;96912.22;;;4.46;100.00
55289;BME280;41154;45.394;5.734;2023-04-04T00:37:01;96914.41;;;4.56;100.00
55289;BME280;41154;45.394;5.734;2023-04-04T00:39:27;96914.31;;;4.38;100.00
55289;BME280;41154;45.394;5.734;2023-04-04T00:41:53;96910.81;;;4.44;100.00
55289;BME280;41154;45.394;5.734;2023-04-04T00:44:19;96912.28;;;4.33;100.00
55289;BME280;41154;45.394;5.734;2023-04-04T00:46:45;96913.53;;;4.30;100.00
55289;BME280;41154;45.394;5.734;2023-04-04T00:49:11;96917.22;;;4.29;100.00
55289;BME280;41154;45.394;5.734;2023-04-04T00:51:36;96916.38;;;4.36;100.00
55289;BME280;41154;45.394;5.734;2023-04-04T00:54:02;96909.00;;;4.38;100.00
55289;BME280;41154;45.394;5.734;2023-04-04T00:56:29;96904.53;;;4.31;100.00
55289;BME280;41154;45.394;5.734;2023-04-04T00:58:56;96905.38;;;4.25;100.00
55289;BME280;41154;45.394;5.734;2023-04-04T01:01:22;96913.34;;;4.32;100.00
55289;BME280;41154;45.394;5.734;2023-04-04T01:03:51;96907.19;;;4.31;100.00
55289;BME280;41154;45.394;5.734;2023-04-04T01:06:17;96905.75;;;4.36;100.00
55289;BME280;41154;45.394;5.734;2023-04-04T01:08:44;96903.78;;;4.24;100.00
55289;BME280;41154;45.394;5.734;2023-04-04T01:11:12;96906.00;;;4.27;100.00
55289;BME280;41154;45.394;5.734;2023-04-04T01:13:38;96896.13;;;4.35;100.00
55289;BME280;41154;45.394;5.734;2023-04-04T01:16:08;96896.41;;;4.26;100.00
55289;BME280;41154;45.394;5.734;2023-04-04T01:18:35;96899.72;;;4.15;100.00
55289;BME280;41154;45.394;5.734;2023-04-04T01:21:05;96891.72;;;4.22;100.00
55289;BME280;41154;45.394;5.734;2023-04-04T01:26:17;96895.38;;;4.27;100.00
55289;BME280;41154;45.394;5.734;2023-04-04T01:28:43;96898.47;;;4.24;100.00
55289;BME280;41154;45.394;5.734;2023-04-04T01:31:13;96896.59;;;4.25;100.00
55289;BME280;41154;45.394;5.734;2023-04-04T01:33:45;96883.66;;;4.42;100.00
55289;BME280;41154;45.394;5.734;2023-04-04T01:38:55;96891.50;;;4.23;100.00
55289;BME280;41154;45.394;5.734;2023-04-04T01:41:24;96890.75;;;4.16;100.00
55289;BME280;41154;45.394;5.734;2023-04-04T01:43:57;96891.94;;;4.20;100.00
55289;BME280;41154;45.394;5.734;2023-04-04T01:46:24;96882.34;;;4.19;100.00
55289;BME280;41154;45.394;5.734;2023-04-04T01:48:50;96888.59;;;4.31;100.00
55289;BME280;41154;45.394;5.734;2023-04-04T01:51:21;96895.50;;;4.46;100.00
55289;BME280;41154;45.394;5.734;2023-04-04T01:53:49;96893.16;;;4.24;100.00
55289;BME280;41154;45.394;5.734;2023-04-04T01:56:15;96891.03;;;4.33;100.00
55289;BME280;41154;45.394;5.734;2023-04-04T01:58:41;96894.00;;;4.18;100.00
55289;BME280;41154;45.394;5.734;2023-04-04T02:01:08;96885.44;;;4.09;100.00
55289;BME280;41154;45.394;5.734;2023-04-04T02:03:34;96893.00;;;4.12;100.00
55289;BME280;41154;45.394;5.734;2023-04-04T02:06:00;96893.63;;;4.14;100.00
55289;BME280;41154;45.394;5.734;2023-04-04T02:08:26;96891.75;;;4.15;100.00
55289;BME280;41154;45.394;5.734;2023-04-04T02:10:58;96895.09;;;4.04;100.00
55289;BME280;41154;45.394;5.734;2023-04-04T02:13:24;96885.78;;;4.26;100.00
55289;BME280;41154;45.394;5.734;2023-04-04T02:15:51;96880.41;;;4.40;100.00
55289;BME280;41154;45.394;5.734;2023-04-04T02:18:17;96877.31;;;4.43;100.00
55289;BME280;41154;45.394;5.734;2023-04-04T02:20:43;96880.84;;;4.30;100.00
55289;BME280;41154;45.394;5.734;2023-04-04T02:23:09;96880.31;;;4.21;100.00
55289;BME280;41154;45.394;5.734;2023-04-04T02:25:35;96882.44;;;4.38;100.00
55289;BME280;41154;45.394;5.734;2023-04-04T02:28:00;96882.09;;;4.27;100.00
55289;BME280;41154;45.394;5.734;2023-04-04T02:30:26;96891.56;;;4.17;100.00
55289;BME280;41154;45.394;5.734;2023-04-04T02:32:52;96875.13;;;4.33;100.00
55289;BME280;41154;45.394;5.734;2023-04-04T02:35:19;96884.66;;;4.41;100.00
55289;BME280;41154;45.394;5.734;2023-04-04T02:37:45;96876.69;;;4.41;100.00
55289;BME280;41154;45.394;5.734;2023-04-04T02:40:18;96875.13;;;4.33;100.00
55289;BME280;41154;45.394;5.734;2023-04-04T02:42:44;96876.69;;;4.41;100.00
55289;BME280;41154;45.394;5.734;2023-04-04T02:45:10;96875.41;;;4.18;100.00
55289;BME280;41154;45.394;5.734;2023-04-04T02:47:40;96879.78;;;3.99;100.00
55289;BME280;41154;45.394;5.734;2023-04-04T02:50:08;96880.78;;;4.05;100.00
55289;BME280;41154;45.394;5.734;2023-04-04T02:52:37;96877.41;;;3.84;100.00
55289;BME280;41154;45.394;5.734;2023-04-04T02:55:09;96873.59;;;4.12;100.00
55289;BME280;41154;45.394;5.734;2023-04-04T02:57:38;96888.84;;;3.78;100.00
55289;BME280;41154;45.394;5.734;2023-04-04T03:00:05;96888.25;;;3.69;100.00
55289;BME280;41154;45.394;5.734;2023-04-04T03:02:31;96885.97;;;3.80;100.00
55289;BME280;41154;45.394;5.734;2023-04-04T03:04:57;96884.13;;;3.80;100.00
55289;BME280;41154;45.394;5.734;2023-04-04T03:07:23;96882.31;;;3.81;100.00
55289;BME280;41154;45.394;5.734;2023-04-04T03:09:52;96884.31;;;3.92;100.00
55289;BME280;41154;45.394;5.734;2023-04-04T03:12:19;96889.06;;;3.76;100.00
55289;BME280;41154;45.394;5.734;2023-04-04T03:14:46;96885.31;;;3.91;100.00
55289;BME280;41154;45.394;5.734;2023-04-04T03:17:14;96883.50;;;3.85;100.00
55289;BME280;41154;45.394;5.734;2023-04-04T03:19:43;96882.91;;;3.83;100.00
55289;BME280;41154;45.394;5.734;2023-04-04T03:22:10;96876.81;;;3.82;100.00
55289;BME280;41154;45.394;5.734;2023-04-04T03:24:36;96880.22;;;3.96;100.00
55289;BME280;41154;45.394;5.734;2023-04-04T03:27:02;96878.13;;;4.05;100.00
55289;BME280;41154;45.394;5.734;2023-04-04T03:29:28;96884.06;;;4.00;100.00
55289;BME280;41154;45.394;5.734;2023-04-04T03:31:55;96885.38;;;3.71;100.00
55289;BME280;41154;45.394;5.734;2023-04-04T03:34:21;96880.97;;;4.10;100.00
55289;BME280;41154;45.394;5.734;2023-04-04T03:36:49;96886.78;;;3.80;100.00
55289;BME280;41154;45.394;5.734;2023-04-04T03:39:16;96884.69;;;3.95;100.00
55289;BME280;41154;45.394;5.734;2023-04-04T03:41:42;96889.84;;;3.77;100.00
55289;BME280;41154;45.394;5.734;2023-04-04T03:44:08;96887.66;;;3.67;100.00
55289;BME280;41154;45.394;5.734;2023-04-04T03:46:34;96885.22;;;3.59;100.00
55289;BME280;41154;45.394;5.734;2023-04-04T03:49:00;96884.34;;;3.85;100.00
55289;BME280;41154;45.394;5.734;2023-04-04T03:51:26;96889.94;;;3.57;100.00
55289;BME280;41154;45.394;5.734;2023-04-04T03:53:52;96880.53;;;3.61;100.00
55289;BME280;41154;45.394;5.734;2023-04-04T03:56:18;96874.00;;;3.64;100.00
55289;BME280;41154;45.394;5.734;2023-04-04T03:58:44;96879.22;;;3.90;100.00
55289;BME280;41154;45.394;5.734;2023-04-04T04:01:16;96873.66;;;3.99;100.00
55289;BME280;41154;45.394;5.734;2023-04-04T04:03:42;96880.53;;;3.68;100.00
55289;BME280;41154;45.394;5.734;2023-04-04T04:06:07;96873.19;;;3.63;100.00
55289;BME280;41154;45.394;5.734;2023-04-04T04:08:34;96871.91;;;3.79;100.00
55289;BME280;41154;45.394;5.734;2023-04-04T04:11:04;96875.56;;;3.78;100.00
55289;BME280;41154;45.394;5.734;2023-04-04T04:13:32;96883.41;;;3.53;100.00
55289;BME280;41154;45.394;5.734;2023-04-04T04:15:58;96873.63;;;3.60;100.00
55289;BME280;41154;45.394;5.734;2023-04-04T04:18:23;96879.50;;;3.62;100.00
55289;BME280;41154;45.394;5.734;2023-04-04T04:20:57;96890.47;;;3.79;100.00
55289;BME280;41154;45.394;5.734;2023-04-04T04:23:24;96886.69;;;3.35;100.00
55289;BME280;41154;45.394;5.734;2023-04-04T04:25:51;96887.06;;;3.52;100.00
55289;BME280;41154;45.394;5.734;2023-04-04T04:28:19;96892.19;;;3.60;100.00
55289;BME280;41154;45.394;5.734;2023-04-04T04:30:46;96892.13;;;3.73;100.00
55289;BME280;41154;45.394;5.734;2023-04-04T04:33:14;96895.22;;;3.64;100.00
55289;BME280;41154;45.394;5.734;2023-04-04T04:35:53;96891.53;;;3.71;100.00
55289;BME280;41154;45.394;5.734;2023-04-04T04:38:21;96900.88;;;3.74;100.00
55289;BME280;41154;45.394;5.734;2023-04-04T04:40:48;96896.28;;;3.22;100.00
55289;BME280;41154;45.394;5.734;2023-04-04T04:43:21;96895.03;;;3.58;100.00
55289;BME280;41154;45.394;5.734;2023-04-04T04:45:49;96894.63;;;3.62;100.00
55289;BME280;41154;45.394;5.734;2023-04-04T04:48:16;96900.31;;;3.65;100.00
55289;BME280;41154;45.394;5.734;2023-04-04T04:50:47;96904.03;;;3.44;100.00
55289;BME280;41154;45.394;5.734;2023-04-04T04:53:17;96903.81;;;3.52;100.00
55289;BME280;41154;45.394;5.734;2023-04-04T04:55:45;96895.44;;;3.55;100.00
55289;BME280;41154;45.394;5.734;2023-04-04T04:58:11;96893.00;;;3.47;100.00
55289;BME280;41154;45.394;5.734;2023-04-04T05:00:41;96897.34;;;3.21;100.00
55289;BME280;41154;45.394;5.734;2023-04-04T05:03:07;96895.69;;;3.34;100.00
55289;BME280;41154;45.394;5.734;2023-04-04T05:05:37;96900.53;;;3.50;100.00
55289;BME280;41154;45.394;5.734;2023-04-04T05:08:08;96901.81;;;3.21;100.00
55289;BME280;41154;45.394;5.734;2023-04-04T05:10:38;96903.63;;;3.27;100.00
55289;BME280;41154;45.394;5.734;2023-04-04T05:13:05;96906.94;;;3.09;100.00
55289;BME280;41154;45.394;5.734;2023-04-04T05:15:39;96905.50;;;3.20;100.00
55289;BME280;41154;45.394;5.734;2023-04-04T05:18:06;96914.25;;;3.20;100.00
55289;BME280;41154;45.394;5.734;2023-04-04T05:20:32;96908.53;;;3.23;100.00
55289;BME280;41154;45.394;5.734;2023-04-04T05:23:00;96907.94;;;3.21;100.00
55289;BME280;41154;45.394;5.734;2023-04-04T05:25:33;96901.81;;;3.34;100.00
55289;BME280;41154;45.394;5.734;2023-04-04T05:27:59;96916.69;;;3.35;100.00
55289;BME280;41154;45.394;5.734;2023-04-04T05:30:25;96922.22;;;3.20;100.00
55289;BME280;41154;45.394;5.734;2023-04-04T05:33:04;96918.13;;;3.31;100.00
55289;BME280;41154;45.394;5.734;2023-04-04T05:35:30;96922.59;;;3.24;100.00
55289;BME280;41154;45.394;5.734;2023-04-04T05:37:57;96929.53;;;3.32;100.00
55289;BME280;41154;45.394;5.734;2023-04-04T05:40:24;96934.63;;;3.40;100.00
55289;BME280;41154;45.394;5.734;2023-04-04T05:42:58;96935.06;;;3.23;100.00
55289;BME280;41154;45.394;5.734;2023-04-04T05:45:31;96928.94;;;3.30;100.00
55289;BME280;41154;45.394;5.734;2023-04-04T05:47:58;96933.63;;;3.28;100.00
55289;BME280;41154;45.394;5.734;2023-04-04T05:50:27;96935.47;;;3.14;100.00
55289;BME280;41154;45.394;5.734;2023-04-04T05:52:58;96940.34;;;3.17;100.00
55289;BME280;41154;45.394;5.734;2023-04-04T05:55:25;96946.28;;;3.32;100.00
55289;BME280;41154;45.394;5.734;2023-04-04T05:57:54;96950.13;;;3.16;100.00
55289;BME280;41154;45.394;5.734;2023-04-04T06:00:30;96948.72;;;3.20;100.00
55289;BME280;41154;45.394;5.734;2023-04-04T06:03:03;96954.00;;;3.20;100.00
55289;BME280;41154;45.394;5.734;2023-04-04T06:05:29;96957.91;;;3.24;100.00
55289;BME280;41154;45.394;5.734;2023-04-04T06:07:55;96955.03;;;3.33;100.00
55289;BME280;41154;45.394;5.734;2023-04-04T06:10:21;96964.63;;;3.07;100.00
55289;BME280;41154;45.394;5.734;2023-04-04T06:12:46;96961.16;;;3.00;100.00
55289;BME280;41154;45.394;5.734;2023-04-04T06:15:12;96961.53;;;3.03;100.00
55289;BME280;41154;45.394;5.734;2023-04-04T06:17:40;96972.38;;;3.09;100.00
55289;BME280;41154;45.394;5.734;2023-04-04T06:20:07;96974.56;;;2.78;100.00
55289;BME280;41154;45.394;5.734;2023-04-04T06:22:33;96971.75;;;3.13;100.00
55289;BME280;41154;45.394;5.734;2023-04-04T06:25:00;96978.88;;;3.06;100.00
55289;BME280;41154;45.394;5.734;2023-04-04T06:27:27;96983.38;;;3.05;100.00
55289;BME280;41154;45.394;5.734;2023-04-04T06:29:54;96984.38;;;2.98;100.00
55289;BME280;41154;45.394;5.734;2023-04-04T06:32:21;96979.28;;;3.10;100.00
55289;BME280;41154;45.394;5.734;2023-04-04T06:34:47;96980.91;;;3.24;100.00
55289;BME280;41154;45.394;5.734;2023-04-04T06:37:16;96981.53;;;3.06;100.00
55289;BME280;41154;45.394;5.734;2023-04-04T06:39:52;96984.38;;;3.11;100.00
55289;BME280;41154;45.394;5.734;2023-04-04T06:42:22;96992.34;;;3.11;100.00
55289;BME280;41154;45.394;5.734;2023-04-04T06:44:50;96992.53;;;3.16;100.00
55289;BME280;41154;45.394;5.734;2023-04-04T06:47:16;96991.94;;;3.21;100.00
55289;BME280;41154;45.394;5.734;2023-04-04T06:49:41;96981.31;;;3.41;100.00
55289;BME280;41154;45.394;5.734;2023-04-04T06:52:07;96984.59;;;3.16;100.00
55289;BME280;41154;45.394;5.734;2023-04-04T06:54:33;96986.84;;;3.06;100.00
55289;BME280;41154;45.394;5.734;2023-04-04T06:57:00;96983.38;;;3.32;100.00
55289;BME280;41154;45.394;5.734;2023-04-04T06:59:25;96991.72;;;3.42;100.00
55289;BME280;41154;45.394;5.734;2023-04-04T07:01:52;96991.31;;;2.99;100.00
55289;BME280;41154;45.394;5.734;2023-04-04T07:04:18;96998.66;;;3.50;100.00
55289;BME280;41154;45.394;5.734;2023-04-04T07:06:44;96992.34;;;3.65;100.00
55289;BME280;41154;45.394;5.734;2023-04-04T07:09:10;96996.19;;;3.75;100.00
55289;BME280;41154;45.394;5.734;2023-04-04T07:11:37;96990.47;;;3.85;100.00
55289;BME280;41154;45.394;5.734;2023-04-04T07:14:02;96984.34;;;3.85;100.00
55289;BME280;41154;45.394;5.734;2023-04-04T07:16:28;96998.47;;;3.58;100.00
55289;BME280;41154;45.394;5.734;2023-04-04T07:18:54;96989.50;;;3.46;100.00
55289;BME280;41154;45.394;5.734;2023-04-04T07:21:20;96994.38;;;3.02;100.00
55289;BME280;41154;45.394;5.734;2023-04-04T07:23:46;97001.09;;;3.05;100.00
55289;BME280;41154;45.394;5.734;2023-04-04T07:26:12;96997.44;;;2.99;100.00
55289;BME280;41154;45.394;5.734;2023-04-04T07:28:38;96986.19;;;3.71;100.00
55289;BME280;41154;45.394;5.734;2023-04-04T07:31:03;96995.78;;;3.78;100.00
55289;BME280;41154;45.394;5.734;2023-04-04T07:33:29;96994.75;;;3.86;100.00
55289;BME280;41154;45.394;5.734;2023-04-04T07:35:55;96994.13;;;3.98;100.00
55289;BME280;41154;45.394;5.734;2023-04-04T07:38:21;96998.47;;;3.52;100.00
55289;BME280;41154;45.394;5.734;2023-04-04T07:40:48;96999.47;;;3.71;100.00
55289;BME280;41154;45.394;5.734;2023-04-04T07:43:14;96995.91;;;4.10;100.00
55289;BME280;41154;45.394;5.734;2023-04-04T07:45:39;96994.03;;;4.24;100.00
55289;BME280;41154;45.394;5.734;2023-04-04T07:48:05;96988.34;;;4.21;100.00
55289;BME280;41154;45.394;5.734;2023-04-04T07:50:34;96993.13;;;3.78;100.00
55289;BME280;41154;45.394;5.734;2023-04-04T07:53:00;96990.97;;;4.27;100.00
55289;BME280;41154;45.394;5.734;2023-04-04T07:55:26;96990.75;;;4.22;100.00
55289;BME280;41154;45.394;5.734;2023-04-04T07:57:52;96988.34;;;4.14;100.00
55289;BME280;41154;45.394;5.734;2023-04-04T08:00:18;96997.00;;;3.96;100.00
55289;BME280;41154;45.394;5.734;2023-04-04T08:02:50;96988.59;;;4.06;100.00
55289;BME280;41154;45.394;5.734;2023-04-04T08:05:17;96995.22;;;4.28;100.00
55289;BME280;41154;45.394;5.734;2023-04-04T08:07:42;96999.22;;;3.92;100.00
55289;BME280;41154;45.394;5.734;2023-04-04T08:10:09;97001.06;;;4.05;100.00
55289;BME280;41154;45.394;5.734;2023-04-04T08:12:35;96993.91;;;4.06;100.00
55289;BME280;41154;45.394;5.734;2023-04-04T08:15:02;96997.34;;;4.13;100.00
55289;BME280;41154;45.394;5.734;2023-04-04T08:17:27;97000.06;;;4.90;100.00
55289;BME280;41154;45.394;5.734;2023-04-04T08:19:53;97001.34;;;4.81;100.00
55289;BME280;41154;45.394;5.734;2023-04-04T08:22:19;96998.44;;;5.21;100.00
55289;BME280;41154;45.394;5.734;2023-04-04T08:24:44;96999.69;;;4.41;100.00
55289;BME280;41154;45.394;5.734;2023-04-04T08:27:11;97007.97;;;5.03;100.00
55289;BME280;41154;45.394;5.734;2023-04-04T08:29:38;97003.75;;;5.21;100.00
55289;BME280;41154;45.394;5.734;2023-04-04T08:32:05;97001.50;;;4.93;100.00
55289;BME280;41154;45.394;5.734;2023-04-04T08:34:31;97000.13;;;4.38;100.00
55289;BME280;41154;45.394;5.734;2023-04-04T08:36:57;97004.56;;;4.51;100.00
55289;BME280;41154;45.394;5.734;2023-04-04T08:39:23;97016.44;;;4.42;100.00
55289;BME280;41154;45.394;5.734;2023-04-04T08:41:54;97015.84;;;4.33;100.00
55289;BME280;41154;45.394;5.734;2023-04-04T08:44:23;97007.38;;;4.56;100.00
55289;BME280;41154;45.394;5.734;2023-04-04T08:46:51;97016.47;;;4.35;100.00
55289;BME280;41154;45.394;5.734;2023-04-04T08:49:17;97021.63;;;4.68;100.00
55289;BME280;41154;45.394;5.734;2023-04-04T08:51:46;97014.13;;;4.59;100.00
55289;BME280;41154;45.394;5.734;2023-04-04T08:54:15;97020.63;;;4.70;100.00
55289;BME280;41154;45.394;5.734;2023-04-04T08:56:42;97015.19;;;4.51;100.00
55289;BME280;41154;45.394;5.734;2023-04-04T08:59:08;97013.19;;;4.33;100.00
55289;BME280;41154;45.394;5.734;2023-04-04T09:01:36;97025.38;;;4.54;100.00
55289;BME280;41154;45.394;5.734;2023-04-04T09:04:03;97024.13;;;4.63;100.00
55289;BME280;41154;45.394;5.734;2023-04-04T09:06:29;97023.31;;;4.56;100.00
55289;BME280;41154;45.394;5.734;2023-04-04T09:08:58;97030.56;;;4.36;100.00
55289;BME280;41154;45.394;5.734;2023-04-04T09:11:24;97032.47;;;4.67;100.00
55289;BME280;41154;45.394;5.734;2023-04-04T09:13:51;97041.19;;;4.81;100.00
55289;BME280;41154;45.394;5.734;2023-04-04T09:16:19;97035.31;;;5.11;100.00
55289;BME280;41154;45.394;5.734;2023-04-04T09:18:45;97037.75;;;5.12;100.00
55289;BME280;41154;45.394;5.734;2023-04-04T09:21:12;97043.69;;;5.14;100.00
55289;BME280;41154;45.394;5.734;2023-04-04T09:23:38;97055.63;;;4.60;100.00
55289;BME280;41154;45.394;5.734;2023-04-04T09:26:05;97046.03;;;4.97;100.00
55289;BME280;41154;45.394;5.734;2023-04-04T09:28:32;97054.31;;;4.76;100.00
55289;BME280;41154;45.394;5.734;2023-04-04T09:31:02;97055.97;;;5.40;100.00
55289;BME280;41154;45.394;5.734;2023-04-04T09:33:30;97048.59;;;5.93;99.06
55289;BME280;41154;45.394;5.734;2023-04-04T09:36:02;97053.50;;;5.46;100.00
55289;BME280;41154;45.394;5.734;2023-04-04T09:38:29;97053.50;;;5.96;98.35
55289;BME280;41154;45.394;5.734;2023-04-04T09:40:56;97057.84;;;6.34;96.30
55289;BME280;41154;45.394;5.734;2023-04-04T09:43:23;97059.03;;;6.20;95.44
55289;BME280;41154;45.394;5.734;2023-04-04T09:45:49;97050.47;;;6.55;92.33
55289;BME280;41154;45.394;5.734;2023-04-04T09:48:26;97051.94;;;6.32;92.98
55289;BME280;41154;45.394;5.734;2023-04-04T09:50:53;97054.78;;;5.36;98.28
55289;BME280;41154;45.394;5.734;2023-04-04T09:53:22;97059.72;;;6.71;92.55
55289;BME280;41154;45.394;5.734;2023-04-04T09:55:49;97048.22;;;7.73;87.88
55289;BME280;41154;45.394;5.734;2023-04-04T09:58:18;97051.50;;;7.45;86.89
55289;BME280;41154;45.394;5.734;2023-04-04T10:00:48;97042.06;;;8.08;82.32
55289;BME280;41154;45.394;5.734;2023-04-04T10:03:17;97037.19;;;7.81;84.67
55289;BME280;41154;45.394;5.734;2023-04-04T10:05:46;97036.63;;;7.91;82.61
55289;BME280;41154;45.394;5.734;2023-04-04T10:08:20;97040.09;;;8.03;82.78
55289;BME280;41154;45.394;5.734;2023-04-04T10:10:49;97040.88;;;7.56;85.82
55289;BME280;41154;45.394;5.734;2023-04-04T10:13:25;97046.63;;;7.84;84.26
55289;BME280;41154;45.394;5.734;2023-04-04T10:15:55;97040.97;;;9.09;85.66
55289;BME280;41154;45.394;5.734;2023-04-04T10:18:26;97029.84;;;9.46;78.04
55289;BME280;41154;45.394;5.734;2023-04-04T10:20:56;97036.69;;;8.55;82.02
55289;BME280;41154;45.394;5.734;2023-04-04T10:23:23;97036.91;;;8.66;83.81
55289;BME280;41154;45.394;5.734;2023-04-04T10:25:50;97038.97;;;8.75;79.47
55289;BME280;41154;45.394;5.734;2023-04-04T10:28:17;97029.34;;;8.74;78.85
55289;BME280;41154;45.394;5.734;2023-04-04T10:30:48;97035.81;;;8.26;82.08
55289;BME280;41154;45.394;5.734;2023-04-04T10:33:21;97036.59;;;8.38;81.41
55289;BME280;41154;45.394;5.734;2023-04-04T10:35:50;97026.50;;;8.28;82.36
55289;BME280;41154;45.394;5.734;2023-04-04T10:38:20;97031.03;;;7.92;79.17
55289;BME280;41154;45.394;5.734;2023-04-04T10:40:52;97035.22;;;8.24;80.32
55289;BME280;41154;45.394;5.734;2023-04-04T10:43:24;97035.56;;;8.16;79.67
55289;BME280;41154;45.394;5.734;2023-04-04T10:46:00;97040.63;;;7.46;81.82
55289;BME280;41154;45.394;5.734;2023-04-04T10:48:26;97036.38;;;7.69;82.53
55289;BME280;41154;45.394;5.734;2023-04-04T10:50:53;97030.00;;;7.70;84.10
55289;BME280;41154;45.394;5.734;2023-04-04T10:53:20;97023.59;;;8.06;82.87
55289;BME280;41154;45.394;5.734;2023-04-04T10:55:47;97018.25;;;9.11;78.75
55289;BME280;41154;45.394;5.734;2023-04-04T10:58:13;97006.56;;;9.46;82.79
55289;BME280;41154;45.394;5.734;2023-04-04T11:00:51;97019.34;;;8.98;86.89
55289;BME280;41154;45.394;5.734;2023-04-04T11:03:19;97025.78;;;9.14;84.39
55289;BME280;41154;45.394;5.734;2023-04-04T11:05:45;97019.94;;;9.63;74.88
55289;BME280;41154;45.394;5.734;2023-04-04T11:08:16;97022.22;;;9.09;78.50
55289;BME280;41154;45.394;5.734;2023-04-04T11:10:48;97023.34;;;9.13;75.68
55289;BME280;41154;45.394;5.734;2023-04-04T11:13:17;97024.06;;;8.91;77.10
55289;BME280;41154;45.394;5.734;2023-04-04T11:18:19;97020.13;;;8.82;74.21
55289;BME280;41154;45.394;5.734;2023-04-04T11:20:46;97011.72;;;8.38;73.04
55289;BME280;41154;45.394;5.734;2023-04-04T11:23:20;97024.97;;;7.50;77.57
55289;BME280;41154;45.394;5.734;2023-04-04T11:34:07;97011.13;;;8.48;76.78
55289;BME280;41154;45.394;5.734;2023-04-04T11:39:04;96999.81;;;9.95;70.43
55289;BME280;41154;45.394;5.734;2023-04-04T11:44:15;97008.50;;;9.51;73.62
55289;BME280;41154;45.394;5.734;2023-04-04T11:46:42;97006.69;;;10.07;74.29
55289;BME280;41154;45.394;5.734;2023-04-04T11:49:08;97009.00;;;9.65;72.81
55289;BME280;41154;45.394;5.734;2023-04-04T11:51:35;97000.63;;;9.61;78.55
55289;BME280;41154;45.394;5.734;2023-04-04T11:54:02;97001.44;;;9.62;71.81
55289;BME280;41154;45.394;5.734;2023-04-04T11:56:32;97007.91;;;9.66;73.36
55289;BME280;41154;45.394;5.734;2023-04-04T11:59:02;97000.84;;;9.26;74.37
55289;BME280;41154;45.394;5.734;2023-04-04T12:01:30;97008.06;;;9.25;73.63
55289;BME280;41154;45.394;5.734;2023-04-04T12:03:58;97003.78;;;8.95;75.13
55289;BME280;41154;45.394;5.734;2023-04-04T12:06:25;97008.63;;;7.94;78.23
55289;BME280;41154;45.394;5.734;2023-04-04T12:08:51;96998.81;;;8.35;76.66
55289;BME280;41154;45.394;5.734;2023-04-04T12:11:17;97002.25;;;8.99;72.43
55289;BME280;41154;45.394;5.734;2023-04-04T12:13:49;97007.41;;;8.60;76.13
55289;BME280;41154;45.394;5.734;2023-04-04T12:16:18;96999.19;;;8.50;80.15
55289;BME280;41154;45.394;5.734;2023-04-04T12:18:45;96996.06;;;8.30;79.27
55289;BME280;41154;45.394;5.734;2023-04-04T12:21:11;96994.31;;;8.23;77.99
55289;BME280;41154;45.394;5.734;2023-04-04T12:23:37;96995.25;;;9.10;77.41
55289;BME280;41154;45.394;5.734;2023-04-04T12:26:03;96995.88;;;8.60;77.69
55289;BME280;41154;45.394;5.734;2023-04-04T12:28:31;97005.75;;;7.95;80.74
55289;BME280;41154;45.394;5.734;2023-04-04T12:31:00;96997.31;;;8.39;77.52
55289;BME280;41154;45.394;5.734;2023-04-04T12:33:33;96989.97;;;9.15;79.81
55289;BME280;41154;45.394;5.734;2023-04-04T12:36:00;96994.88;;;8.90;79.66
55289;BME280;41154;45.394;5.734;2023-04-04T12:38:28;96995.66;;;7.85;78.54
55289;BME280;41154;45.394;5.734;2023-04-04T12:40:55;96996.44;;;7.74;81.89
55289;BME280;41154;45.394;5.734;2023-04-04T12:43:20;96992.00;;;7.91;84.56
55289;BME280;41154;45.394;5.734;2023-04-04T12:45:48;96981.69;;;8.71;84.28
55289;BME280;41154;45.394;5.734;2023-04-04T12:48:15;96988.97;;;8.35;82.90
55289;BME280;41154;45.394;5.734;2023-04-04T12:50:59;96989.50;;;8.61;76.72
55289;BME280;41154;45.394;5.734;2023-04-04T12:53:26;96994.81;;;8.73;77.22
55289;BME280;41154;45.394;5.734;2023-04-04T12:55:55;96989.03;;;8.64;77.35
55289;BME280;41154;45.394;5.734;2023-04-04T12:58:24;96986.72;;;8.85;78.17
55289;BME280;41154;45.394;5.734;2023-04-04T13:00:52;96982.31;;;8.90;78.84
55289;BME280;41154;45.394;5.734;2023-04-04T13:03:23;96977.00;;;8.78;79.62
55289;BME280;41154;45.394;5.734;2023-04-04T13:05:49;96978.84;;;9.07;79.91
55289;BME280;41154;45.394;5.734;2023-04-04T13:08:17;96978.47;;;9.15;78.35
55289;BME280;41154;45.394;5.734;2023-04-04T13:11:00;96987.34;;;9.04;75.71
55289;BME280;41154;45.394;5.734;2023-04-04T13:13:37;96977.94;;;9.01;74.68
55289;BME280;41154;45.394;5.734;2023-04-04T13:16:08;96978.63;;;9.59;76.03
55289;BME280;41154;45.394;5.734;2023-04-04T13:18:39;96983.66;;;9.39;78.51
55289;BME280;41154;45.394;5.734;2023-04-04T13:21:07;96986.59;;;8.62;76.91
55289;BME280;41154;45.394;5.734;2023-04-04T13:23:34;96977.94;;;8.72;77.96
55289;BME280;41154;45.394;5.734;2023-04-04T13:26:02;96986.81;;;9.35;77.41